ETOU

Details ICAO ETOU
Name Wiesbaden AAF
Region Germany - Military
Timezone Europe/Berlin (UTC+1.0)
Plans Departing 3
Arriving 2
Stats Elevation 461 ft / 141 m (AMSL)
Location 50.049828° 8.325434°
Runways 1
Magnetic Variation 2.282° E
Sunrise 2017-12-14 07:19:29 UTC / 2017-12-14 08:19:29 Local
Sunset 2017-12-14 15:26:03 UTC / 2017-12-14 16:26:03 Local
Advertisement - Login to hide

Runways

ID Width Length Bearing (true) Bearing (mag) Surface Threshold Offset Overrun Length
07 120 ft / 37 m 7,047 ft / 2,148 m 73.29° 71.01° Asphalt 0 ft / 0 m 150 ft / 46 m
25 120 ft / 37 m 7,047 ft / 2,148 m 253.31° 251.03° Asphalt 121 ft / 37 m 150 ft / 46 m

Map

Weather


0- 5 10 15 20 25 30 35+ Temperature / ° C

Clouds and Precipitation
Forecast for 2017-12-14 18:00 UTC. Updated 23 minutes ago

Ground ~20,000 ft ~40,000 ft Winds

METAR

ETOU 141536Z AUTO 25009KT 9999 BKN015 OVC023 04/03 A2942 RMK AO2 RAE00RAB16E26 CIG 015V024 SLP970 $

TAF

TAF AMD ETOU 141352Z 1413/1517 24012KT 8000 -SHRA SCT015 BKN020 620408 QNH2938INS TEMPO 1413/1417 24012G20KT BECMG 1419/1420 22012KT 8000 -SHRA SCT020 BKN030 620309 QNH2932INS BECMG 1501/1502 22009KT 9999 NSW FEW020 SCT025 QNH2938INS BECMG 1506/1507 24012KT 8000 -SHRA SCT015 BKN020 610209 QNH2942INS TX07/1413Z TN02/1506Z

Frequencies

Tower 122.10 MHz TWR
Departure 120.15 MHz FRANKFURT DEP
Approach 120.80 MHz FRANKFURT ARRIVAL
Warning: Do not use this data for real-world aviation or navigation. No guarantee of current accuracy is given.